This is the latest recevied weather packets stored in our database for station/object KF0FSA. If no packets are shown the sender has not sent any weather packets the latest 10 day(s).
| Time | Temp. | Humidity | Pressure | Rain* | Wind** | Luminosity | Snow |
|---|---|---|---|---|---|---|---|
| 1778000031 | 9.44° C | 40% | 959.4 hPa | 0 mm | - | 976 W/m² | - |
| 1777999731 | 9.44° C | 39% | 959.8 hPa | 0 mm | - | 339 W/m² | - |
| 1777999431 | 10° C | 39% | 959.5 hPa | 0 mm | - | 562 W/m² | - |
| 1777999128 | 10° C | 38% | 959.4 hPa | 0 mm | - | 610 W/m² | - |
| 1777998952 | 10° C | 38% | 959.4 hPa | 0 mm | - | 559 W/m² | - |
| 1777998529 | 9.44° C | 39% | 959.2 hPa | 0 mm | - | 958 W/m² | - |
| 1777998228 | 9.44° C | 38% | 959 hPa | 0 mm | - | 961 W/m² | - |
| 1777998052 | 9.44° C | 39% | 959.1 hPa | 0 mm | - | 852 W/m² | - |
| 1777997629 | 9.44° C | 39% | 959.2 hPa | 0 mm | - | 745 W/m² | - |
| 1777997328 | 9.44° C | 40% | 959.4 hPa | 0 mm | - | 377 W/m² | - |
| 1777997028 | 9.44° C | 38% | 959 hPa | 0 mm | - | 745 W/m² | - |
| 1777996728 | 9.44° C | 39% | 959.1 hPa | 0 mm | - | 747 W/m² | - |
| 1777996553 | 8.89° C | 39% | 959.1 hPa | 0 mm | - | 758 W/m² | - |
| 1777996129 | 8.89° C | 38% | 959 hPa | 0 mm | - | 772 W/m² | - |
| 1777995952 | 8.33° C | 39% | 959 hPa | 0 mm | - | 756 W/m² | - |
| 1777995528 | 8.33° C | 42% | 959 hPa | 0 mm | - | 646 W/m² | - |
| 1777995228 | 8.33° C | 43% | 959.1 hPa | 0 mm | - | 542 W/m² | - |
| 1777995053 | 8.33° C | 46% | 959.1 hPa | 0 mm | - | 482 W/m² | - |
| 1777994753 | 8.33° C | 46% | 959 hPa | 0 mm | - | 514 W/m² | - |
| 1777994328 | 8.33° C | 45% | 959 hPa | 0 mm | - | 508 W/m² | - |
| 1777994026 | 8.33° C | 45% | 959 hPa | 0 mm | - | 504 W/m² | - |
| 1777993723 | 7.78° C | 46% | 959 hPa | 0 mm | - | 511 W/m² | - |
| 1777993119 | 7.78° C | 47% | 959 hPa | 0 mm | - | 532 W/m² | - |
| 1777992520 | 7.78° C | 47% | 959 hPa | 0 mm | - | 395 W/m² | - |
| 1777992220 | 7.78° C | 47% | 959 hPa | 0 mm | - | 520 W/m² | - |
* Rain latest hour (hover to see other rain measurements)
** Current wind speed in m/s (hover to see current wind gust speed)